Aaron Joseph — WCV9877 — position and weather

sailwx.info

Track history (hours):
 
Tides and Currents Weather Stations Pressure Air Temp Water Temp Dewpoint Dewpoint Depression Visibility Wind Speed Wind Dir Waves Ship Positions

Aaron Joseph

Owner: AARON JOSEPH INC, GOLDEN MEADOW, LA. More information available from US FCC via Universal Licensing System and Coast Guard Vessel Documentation Center.

Last reported at 2016-Aug-26 11:33 UTC. Time now 2016-Aug-26 12:02 UTC.
Position N 29°36' W 090°43'.

; draft 2.5 m.

Type: Tug. MMSI: 367028680.

Date/timePositionNaut miles runAvg speedWind from/ knotsBaromVisibWave heightAir tempDewpointWater temp
2016-Aug-26 11:33N 29°36' W 090°43'0 0.0
2016-Aug-26 10:33N 29°36' W 090°43'0 0.0
2016-Aug-26 09:33N 29°36' W 090°43'0 0.0
2016-Aug-26 08:33N 29°36' W 090°43'0 0.0
2016-Aug-26 07:33N 29°36' W 090°43'0 0.0
2016-Aug-26 06:33N 29°36' W 090°43'8 4.0
2016-Aug-26 04:33N 29°34' W 090°34'8 7.5
2016-Aug-26 03:33N 29°33' W 090°25'4 0.4
2016-Aug-25 15:31N 29°34' W 090°30'5 4.7
2016-Aug-25 14:33N 29°35' W 090°35'5 4.8
2016-Aug-25 13:33N 29°36' W 090°40'2 1.7
2016-Aug-25 12:33N 29°37' W 090°42'6 5.8
2016-Aug-25 11:33N 29°35' W 090°36'0 0.3
2016-Aug-25 10:33N 29°35' W 090°36'0 0.0
2016-Aug-25 09:33N 29°35' W 090°36'0 0.0
2016-Aug-25 08:33N 29°35' W 090°36'0 0.0
2016-Aug-25 07:33N 29°35' W 090°36'0 0.0
2016-Aug-25 06:33N 29°35' W 090°36'0 0.0
2016-Aug-25 04:33N 29°35' W 090°36'0 0.0
2016-Aug-25 03:33N 29°35' W 090°36'0 0.0
2016-Aug-25 02:33N 29°35' W 090°36'0 0.0
2016-Aug-25 01:33N 29°35' W 090°36'0 0.0
2016-Aug-25 00:33N 29°35' W 090°36'0 0.0
2016-Aug-24 23:24N 29°35' W 090°36'0 0.0
2016-Aug-24 22:33N 29°35' W 090°36'1 0.9
2016-Aug-24 21:33N 29°35' W 090°36'5 5.5
2016-Aug-24 20:33N 29°36' W 090°43'2 1.6
2016-Aug-24 19:33N 29°34' W 090°43'7 7.0
2016-Aug-24 18:33N 29°32' W 090°51'5 0.7
2016-Aug-24 11:21N 29°34' W 090°56'4 4.0
2016-Aug-24 10:18N 29°32' W 090°52'3 3.9
2016-Aug-24 09:33N 29°32' W 090°49'3 3.4
2016-Aug-24 08:33N 29°33' W 090°45'3 3.2
2016-Aug-24 07:33N 29°36' W 090°43'3 2.9
2016-Aug-24 06:33N 29°36' W 090°39'  
Track history (hours):
 
Tides and Currents Weather Stations Pressure Air Temp Water Temp Dewpoint Dewpoint Depression Visibility Wind Speed Wind Dir Waves Ship Positions

Aaron Joseph

Owner: AARON JOSEPH INC, GOLDEN MEADOW, LA. More information available from US FCC via Universal Licensing System and Coast Guard Vessel Documentation Center.

Last reported at 2016-Aug-26 11:33 UTC. Time now 2016-Aug-26 12:02 UTC.
Position N 29°36' W 090°43'.

; draft 2.5 m.

Type: Tug. MMSI: 367028680.

Date/timePositionNaut miles runAvg speedWind from/ knotsBaromVisibWave heightAir tempDewpointWater temp
2016-Aug-26 11:33N 29°36' W 090°43'0 0.0
2016-Aug-26 10:33N 29°36' W 090°43'0 0.0
2016-Aug-26 09:33N 29°36' W 090°43'0 0.0
2016-Aug-26 08:33N 29°36' W 090°43'0 0.0
2016-Aug-26 07:33N 29°36' W 090°43'0 0.0
2016-Aug-26 06:33N 29°36' W 090°43'8 4.0
2016-Aug-26 04:33N 29°34' W 090°34'8 7.5
2016-Aug-26 03:33N 29°33' W 090°25'4 0.4
2016-Aug-25 15:31N 29°34' W 090°30'5 4.7
2016-Aug-25 14:33N 29°35' W 090°35'5 4.8
2016-Aug-25 13:33N 29°36' W 090°40'2 1.7
2016-Aug-25 12:33N 29°37' W 090°42'6 5.8
2016-Aug-25 11:33N 29°35' W 090°36'0 0.3
2016-Aug-25 10:33N 29°35' W 090°36'0 0.0
2016-Aug-25 09:33N 29°35' W 090°36'0 0.0
2016-Aug-25 08:33N 29°35' W 090°36'0 0.0
2016-Aug-25 07:33N 29°35' W 090°36'0 0.0
2016-Aug-25 06:33N 29°35' W 090°36'0 0.0
2016-Aug-25 04:33N 29°35' W 090°36'0 0.0
2016-Aug-25 03:33N 29°35' W 090°36'0 0.0
2016-Aug-25 02:33N 29°35' W 090°36'0 0.0
2016-Aug-25 01:33N 29°35' W 090°36'0 0.0
2016-Aug-25 00:33N 29°35' W 090°36'0 0.0
2016-Aug-24 23:24N 29°35' W 090°36'0 0.0
2016-Aug-24 22:33N 29°35' W 090°36'1 0.9
2016-Aug-24 21:33N 29°35' W 090°36'5 5.5
2016-Aug-24 20:33N 29°36' W 090°43'2 1.6
2016-Aug-24 19:33N 29°34' W 090°43'7 7.0
2016-Aug-24 18:33N 29°32' W 090°51'5 0.7
2016-Aug-24 11:21N 29°34' W 090°56'4 4.0
2016-Aug-24 10:18N 29°32' W 090°52'3 3.9
2016-Aug-24 09:33N 29°32' W 090°49'3 3.4
2016-Aug-24 08:33N 29°33' W 090°45'3 3.2
2016-Aug-24 07:33N 29°36' W 090°43'3 2.9
2016-Aug-24 06:33N 29°36' W 090°39'  

Dump ship's entire track history